Huntington, Indiana
Current Conditions -  °F | °C
As of 1:15 AM on Tuesday 21 Oct 2014 (Local Time) from KHHG Reporting Station
Overcast Overcast  
Wind Chill: 50°   Ceiling: 5000
Heat Index: 50°   Visibility: 10mi
Dew Point: 45°   Wind: 7mph
Humidity: 82%   Direction: 320°NW
Pressure: 29.94"   Gusts: NA
Location:  40.88°N, 85.49°W
Report Text: KHHG 210515Z AUTO 32006KT 10SM OVC050 10/07 A2994 RMK AO2 LTG DSNT SE T01010071
Loading
Personal Weather Stations






























Interactive Weather Map
Tropical Storm Tracking
New forecast layout! Learn more

10-Day Weather Forecast

Advertisements
Track Severe Weather on mobile